sensor_id;sensor_type;location;lat;lon;timestamp;pressure;altitude;pressure_sealevel;temperature;humidity
67015;BME280;1033;52.560;13.374;2024-01-11T00:01:47;102620.00;;;-7.73;100.00
67015;BME280;1033;52.560;13.374;2024-01-11T00:04:17;102621.84;;;-7.46;100.00
67015;BME280;1033;52.560;13.374;2024-01-11T00:06:46;102606.97;;;-7.19;100.00
67015;BME280;1033;52.560;13.374;2024-01-11T00:09:14;102611.63;;;-7.27;100.00
67015;BME280;1033;52.560;13.374;2024-01-11T00:11:45;102609.56;;;-7.18;100.00
67015;BME280;1033;52.560;13.374;2024-01-11T00:14:14;102615.75;;;-7.19;100.00
67015;BME280;1033;52.560;13.374;2024-01-11T00:16:43;102605.34;;;-7.23;100.00
67015;BME280;1033;52.560;13.374;2024-01-11T00:19:12;102595.13;;;-7.32;100.00
67015;BME280;1033;52.560;13.374;2024-01-11T00:21:41;102583.69;;;-7.31;100.00
67015;BME280;1033;52.560;13.374;2024-01-11T00:24:10;102582.88;;;-7.06;100.00
67015;BME280;1033;52.560;13.374;2024-01-11T00:26:39;102585.66;;;-7.10;100.00
67015;BME280;1033;52.560;13.374;2024-01-11T00:29:10;102585.88;;;-6.90;100.00
67015;BME280;1033;52.560;13.374;2024-01-11T00:31:40;102582.16;;;-6.83;100.00
67015;BME280;1033;52.560;13.374;2024-01-11T00:34:08;102578.88;;;-6.91;100.00
67015;BME280;1033;52.560;13.374;2024-01-11T00:36:37;102576.34;;;-6.68;100.00
67015;BME280;1033;52.560;13.374;2024-01-11T00:39:06;102565.97;;;-6.72;100.00
67015;BME280;1033;52.560;13.374;2024-01-11T00:41:36;102545.72;;;-6.70;100.00
67015;BME280;1033;52.560;13.374;2024-01-11T00:44:05;102546.44;;;-6.65;100.00
67015;BME280;1033;52.560;13.374;2024-01-11T00:46:36;102538.69;;;-6.70;100.00
67015;BME280;1033;52.560;13.374;2024-01-11T00:49:06;102552.88;;;-6.74;100.00
67015;BME280;1033;52.560;13.374;2024-01-11T00:51:35;102550.03;;;-6.94;100.00
67015;BME280;1033;52.560;13.374;2024-01-11T00:54:04;102541.31;;;-6.70;100.00
67015;BME280;1033;52.560;13.374;2024-01-11T00:56:33;102543.22;;;-6.73;100.00
67015;BME280;1033;52.560;13.374;2024-01-11T00:59:03;102542.03;;;-6.91;100.00
67015;BME280;1033;52.560;13.374;2024-01-11T01:01:32;102524.13;;;-6.80;100.00
67015;BME280;1033;52.560;13.374;2024-01-11T01:04:03;102512.16;;;-6.64;100.00
67015;BME280;1033;52.560;13.374;2024-01-11T01:06:32;102492.69;;;-6.60;100.00
67015;BME280;1033;52.560;13.374;2024-01-11T01:09:01;102499.19;;;-6.70;100.00
67015;BME280;1033;52.560;13.374;2024-01-11T01:11:30;102496.19;;;-6.59;100.00
67015;BME280;1033;52.560;13.374;2024-01-11T01:13:59;102515.94;;;-6.72;100.00
67015;BME280;1033;52.560;13.374;2024-01-11T01:16:28;102511.63;;;-6.73;100.00
67015;BME280;1033;52.560;13.374;2024-01-11T01:18:57;102511.06;;;-6.83;100.00
67015;BME280;1033;52.560;13.374;2024-01-11T01:21:28;102503.06;;;-6.80;100.00
67015;BME280;1033;52.560;13.374;2024-01-11T01:23:57;102505.59;;;-7.03;100.00
67015;BME280;1033;52.560;13.374;2024-01-11T01:26:26;102509.97;;;-6.77;100.00
67015;BME280;1033;52.560;13.374;2024-01-11T01:28:55;102513.47;;;-6.77;100.00
67015;BME280;1033;52.560;13.374;2024-01-11T01:31:24;102529.50;;;-6.83;100.00
67015;BME280;1033;52.560;13.374;2024-01-11T01:33:54;102522.94;;;-6.71;100.00
67015;BME280;1033;52.560;13.374;2024-01-11T01:36:23;102535.25;;;-6.72;100.00
67015;BME280;1033;52.560;13.374;2024-01-11T01:38:54;102527.84;;;-6.61;100.00
67015;BME280;1033;52.560;13.374;2024-01-11T01:41:23;102522.00;;;-6.69;100.00
67015;BME280;1033;52.560;13.374;2024-01-11T01:43:52;102525.53;;;-6.45;100.00
67015;BME280;1033;52.560;13.374;2024-01-11T01:46:23;102527.56;;;-6.53;100.00
67015;BME280;1033;52.560;13.374;2024-01-11T01:48:55;102531.81;;;-6.74;100.00
67015;BME280;1033;52.560;13.374;2024-01-11T01:51:28;102524.47;;;-6.64;100.00
67015;BME280;1033;52.560;13.374;2024-01-11T01:53:59;102517.28;;;-6.59;100.00
67015;BME280;1033;52.560;13.374;2024-01-11T01:56:29;102533.59;;;-6.49;100.00
67015;BME280;1033;52.560;13.374;2024-01-11T01:58:59;102536.59;;;-6.60;100.00
67015;BME280;1033;52.560;13.374;2024-01-11T02:01:30;102541.13;;;-6.64;100.00
67015;BME280;1033;52.560;13.374;2024-01-11T02:03:59;102538.72;;;-6.45;100.00
67015;BME280;1033;52.560;13.374;2024-01-11T02:06:29;102545.59;;;-6.41;100.00
67015;BME280;1033;52.560;13.374;2024-01-11T02:09:02;102561.81;;;-6.53;100.00
67015;BME280;1033;52.560;13.374;2024-01-11T02:11:31;102552.84;;;-6.47;100.00
67015;BME280;1033;52.560;13.374;2024-01-11T02:14:01;102567.16;;;-6.54;100.00
67015;BME280;1033;52.560;13.374;2024-01-11T02:16:30;102561.88;;;-6.54;100.00
67015;BME280;1033;52.560;13.374;2024-01-11T02:18:59;102542.28;;;-6.47;100.00
67015;BME280;1033;52.560;13.374;2024-01-11T02:25:39;102545.94;;;-6.51;100.00
67015;BME280;1033;52.560;13.374;2024-01-11T02:28:08;102546.78;;;-6.49;100.00
67015;BME280;1033;52.560;13.374;2024-01-11T02:30:38;102552.75;;;-6.44;100.00
67015;BME280;1033;52.560;13.374;2024-01-11T02:33:08;102553.28;;;-6.35;100.00
67015;BME280;1033;52.560;13.374;2024-01-11T02:35:38;102547.72;;;-6.27;100.00
67015;BME280;1033;52.560;13.374;2024-01-11T02:38:13;102560.91;;;-6.27;100.00
67015;BME280;1033;52.560;13.374;2024-01-11T02:40:44;102550.19;;;-6.23;100.00
67015;BME280;1033;52.560;13.374;2024-01-11T02:43:14;102544.09;;;-6.00;100.00
67015;BME280;1033;52.560;13.374;2024-01-11T02:45:43;102531.59;;;-5.95;100.00
67015;BME280;1033;52.560;13.374;2024-01-11T02:48:12;102527.66;;;-5.85;100.00
67015;BME280;1033;52.560;13.374;2024-01-11T02:50:41;102510.16;;;-5.86;100.00
67015;BME280;1033;52.560;13.374;2024-01-11T02:53:09;102512.50;;;-5.78;100.00
67015;BME280;1033;52.560;13.374;2024-01-11T02:55:38;102515.19;;;-5.80;100.00
67015;BME280;1033;52.560;13.374;2024-01-11T02:58:08;102505.53;;;-5.81;100.00
67015;BME280;1033;52.560;13.374;2024-01-11T03:00:37;102511.81;;;-5.83;100.00
67015;BME280;1033;52.560;13.374;2024-01-11T03:03:06;102517.41;;;-5.91;100.00
67015;BME280;1033;52.560;13.374;2024-01-11T03:05:35;102537.25;;;-5.82;100.00
67015;BME280;1033;52.560;13.374;2024-01-11T03:08:04;102534.81;;;-6.10;100.00
67015;BME280;1033;52.560;13.374;2024-01-11T03:10:33;102534.34;;;-6.21;100.00
67015;BME280;1033;52.560;13.374;2024-01-11T03:13:02;102520.84;;;-6.12;100.00
67015;BME280;1033;52.560;13.374;2024-01-11T03:15:32;102537.34;;;-6.07;100.00
67015;BME280;1033;52.560;13.374;2024-01-11T03:18:01;102542.84;;;-5.90;100.00
67015;BME280;1033;52.560;13.374;2024-01-11T03:20:30;102530.41;;;-5.64;100.00
67015;BME280;1033;52.560;13.374;2024-01-11T03:22:59;102528.19;;;-5.97;100.00
67015;BME280;1033;52.560;13.374;2024-01-11T03:25:29;102520.06;;;-5.91;100.00
67015;BME280;1033;52.560;13.374;2024-01-11T03:27:59;102518.72;;;-5.81;100.00
67015;BME280;1033;52.560;13.374;2024-01-11T03:30:27;102533.22;;;-5.69;100.00
67015;BME280;1033;52.560;13.374;2024-01-11T03:32:58;102528.69;;;-5.65;100.00
67015;BME280;1033;52.560;13.374;2024-01-11T03:35:27;102517.03;;;-5.82;100.00
67015;BME280;1033;52.560;13.374;2024-01-11T03:37:56;102513.34;;;-5.78;100.00
67015;BME280;1033;52.560;13.374;2024-01-11T03:40:24;102495.97;;;-5.83;100.00
67015;BME280;1033;52.560;13.374;2024-01-11T03:42:54;102489.91;;;-5.62;100.00
67015;BME280;1033;52.560;13.374;2024-01-11T03:45:23;102477.31;;;-5.55;100.00
67015;BME280;1033;52.560;13.374;2024-01-11T03:47:50;102482.09;;;-5.43;100.00
67015;BME280;1033;52.560;13.374;2024-01-11T03:50:20;102470.09;;;-5.29;100.00
67015;BME280;1033;52.560;13.374;2024-01-11T03:57:10;102479.78;;;-5.29;100.00
67015;BME280;1033;52.560;13.374;2024-01-11T03:59:38;102465.91;;;-5.34;100.00
67015;BME280;1033;52.560;13.374;2024-01-11T04:02:08;102458.28;;;-5.20;100.00
67015;BME280;1033;52.560;13.374;2024-01-11T04:04:37;102468.50;;;-5.33;100.00
67015;BME280;1033;52.560;13.374;2024-01-11T04:07:07;102462.66;;;-5.19;100.00
67015;BME280;1033;52.560;13.374;2024-01-11T04:09:37;102468.97;;;-5.23;100.00
67015;BME280;1033;52.560;13.374;2024-01-11T04:12:07;102461.34;;;-5.31;100.00
67015;BME280;1033;52.560;13.374;2024-01-11T04:14:38;102457.19;;;-5.36;100.00
67015;BME280;1033;52.560;13.374;2024-01-11T04:17:08;102448.16;;;-5.31;100.00
67015;BME280;1033;52.560;13.374;2024-01-11T04:19:36;102462.88;;;-5.25;100.00
67015;BME280;1033;52.560;13.374;2024-01-11T04:22:06;102478.19;;;-5.13;100.00
67015;BME280;1033;52.560;13.374;2024-01-11T04:24:35;102479.88;;;-5.10;100.00
67015;BME280;1033;52.560;13.374;2024-01-11T04:27:04;102474.59;;;-5.10;100.00
67015;BME280;1033;52.560;13.374;2024-01-11T04:29:33;102462.22;;;-5.30;100.00
67015;BME280;1033;52.560;13.374;2024-01-11T04:32:01;102468.97;;;-5.23;100.00
67015;BME280;1033;52.560;13.374;2024-01-11T04:34:30;102472.28;;;-5.18;100.00
67015;BME280;1033;52.560;13.374;2024-01-11T04:36:59;102460.72;;;-5.15;100.00
67015;BME280;1033;52.560;13.374;2024-01-11T04:39:29;102475.16;;;-5.24;100.00
67015;BME280;1033;52.560;13.374;2024-01-11T04:41:59;102466.00;;;-5.15;100.00
67015;BME280;1033;52.560;13.374;2024-01-11T04:44:29;102477.91;;;-5.27;100.00
67015;BME280;1033;52.560;13.374;2024-01-11T04:46:58;102470.19;;;-5.10;100.00
67015;BME280;1033;52.560;13.374;2024-01-11T04:49:26;102439.22;;;-5.06;100.00
67015;BME280;1033;52.560;13.374;2024-01-11T04:51:55;102441.16;;;-4.90;100.00
67015;BME280;1033;52.560;13.374;2024-01-11T04:54:24;102450.00;;;-4.91;100.00
67015;BME280;1033;52.560;13.374;2024-01-11T04:56:54;102442.47;;;-4.79;100.00
67015;BME280;1033;52.560;13.374;2024-01-11T04:59:22;102432.28;;;-4.89;100.00
67015;BME280;1033;52.560;13.374;2024-01-11T05:01:51;102437.91;;;-4.76;100.00
67015;BME280;1033;52.560;13.374;2024-01-11T05:04:20;102411.69;;;-4.60;100.00
67015;BME280;1033;52.560;13.374;2024-01-11T05:06:50;102407.84;;;-4.53;100.00
67015;BME280;1033;52.560;13.374;2024-01-11T05:09:19;102435.72;;;-4.66;100.00
67015;BME280;1033;52.560;13.374;2024-01-11T05:11:48;102450.50;;;-4.83;100.00
67015;BME280;1033;52.560;13.374;2024-01-11T05:14:18;102459.75;;;-4.72;100.00
67015;BME280;1033;52.560;13.374;2024-01-11T05:16:47;102441.34;;;-4.74;100.00
67015;BME280;1033;52.560;13.374;2024-01-11T05:19:16;102417.97;;;-4.63;100.00
67015;BME280;1033;52.560;13.374;2024-01-11T05:21:45;102433.19;;;-4.49;100.00
67015;BME280;1033;52.560;13.374;2024-01-11T05:24:14;102442.84;;;-4.48;100.00
67015;BME280;1033;52.560;13.374;2024-01-11T05:26:42;102442.13;;;-4.52;100.00
67015;BME280;1033;52.560;13.374;2024-01-11T05:29:11;102441.25;;;-4.52;100.00
67015;BME280;1033;52.560;13.374;2024-01-11T05:31:41;102435.56;;;-4.43;100.00
67015;BME280;1033;52.560;13.374;2024-01-11T05:34:10;102436.59;;;-4.27;100.00
67015;BME280;1033;52.560;13.374;2024-01-11T05:36:40;102432.09;;;-4.25;100.00
67015;BME280;1033;52.560;13.374;2024-01-11T05:39:09;102436.03;;;-4.15;100.00
67015;BME280;1033;52.560;13.374;2024-01-11T05:41:39;102436.25;;;-4.19;100.00
67015;BME280;1033;52.560;13.374;2024-01-11T05:44:07;102419.50;;;-4.20;100.00
67015;BME280;1033;52.560;13.374;2024-01-11T05:46:36;102420.03;;;-4.12;100.00
67015;BME280;1033;52.560;13.374;2024-01-11T05:49:06;102414.59;;;-4.09;100.00
67015;BME280;1033;52.560;13.374;2024-01-11T05:51:35;102424.31;;;-4.09;100.00
67015;BME280;1033;52.560;13.374;2024-01-11T05:54:04;102421.59;;;-4.08;100.00
67015;BME280;1033;52.560;13.374;2024-01-11T05:56:33;102429.75;;;-4.12;100.00
67015;BME280;1033;52.560;13.374;2024-01-11T05:59:01;102420.03;;;-3.93;100.00
67015;BME280;1033;52.560;13.374;2024-01-11T06:01:30;102437.59;;;-3.92;100.00
67015;BME280;1033;52.560;13.374;2024-01-11T06:03:59;102455.88;;;-4.06;100.00
67015;BME280;1033;52.560;13.374;2024-01-11T06:06:29;102444.59;;;-4.10;100.00
67015;BME280;1033;52.560;13.374;2024-01-11T06:08:58;102448.09;;;-4.09;100.00
67015;BME280;1033;52.560;13.374;2024-01-11T06:11:27;102446.81;;;-4.01;100.00
67015;BME280;1033;52.560;13.374;2024-01-11T06:13:56;102430.88;;;-3.99;100.00
67015;BME280;1033;52.560;13.374;2024-01-11T06:16:25;102410.34;;;-3.75;100.00
67015;BME280;1033;52.560;13.374;2024-01-11T06:18:54;102403.22;;;-3.73;100.00
67015;BME280;1033;52.560;13.374;2024-01-11T06:21:23;102415.59;;;-3.74;100.00
67015;BME280;1033;52.560;13.374;2024-01-11T06:23:53;102422.72;;;-3.76;100.00
67015;BME280;1033;52.560;13.374;2024-01-11T06:26:22;102417.38;;;-3.74;100.00
67015;BME280;1033;52.560;13.374;2024-01-11T06:28:51;102428.31;;;-3.63;100.00
67015;BME280;1033;52.560;13.374;2024-01-11T06:31:19;102428.63;;;-3.52;100.00
67015;BME280;1033;52.560;13.374;2024-01-11T06:33:48;102427.00;;;-3.55;100.00
67015;BME280;1033;52.560;13.374;2024-01-11T06:36:18;102421.94;;;-3.42;100.00
67015;BME280;1033;52.560;13.374;2024-01-11T06:38:47;102415.50;;;-3.36;100.00
67015;BME280;1033;52.560;13.374;2024-01-11T06:41:17;102411.66;;;-3.48;100.00
67015;BME280;1033;52.560;13.374;2024-01-11T06:43:46;102406.75;;;-3.38;100.00
67015;BME280;1033;52.560;13.374;2024-01-11T06:46:19;102403.19;;;-3.37;100.00
67015;BME280;1033;52.560;13.374;2024-01-11T06:48:48;102401.09;;;-3.31;100.00
67015;BME280;1033;52.560;13.374;2024-01-11T06:51:21;102412.47;;;-3.29;100.00
67015;BME280;1033;52.560;13.374;2024-01-11T06:53:51;102396.03;;;-3.35;100.00
67015;BME280;1033;52.560;13.374;2024-01-11T06:56:21;102391.28;;;-3.29;100.00
67015;BME280;1033;52.560;13.374;2024-01-11T06:58:50;102399.94;;;-3.25;100.00
67015;BME280;1033;52.560;13.374;2024-01-11T07:01:18;102393.63;;;-3.23;100.00
67015;BME280;1033;52.560;13.374;2024-01-11T07:03:48;102389.03;;;-3.19;100.00
67015;BME280;1033;52.560;13.374;2024-01-11T07:06:17;102381.16;;;-3.03;100.00
67015;BME280;1033;52.560;13.374;2024-01-11T07:08:46;102387.09;;;-3.16;100.00
67015;BME280;1033;52.560;13.374;2024-01-11T07:11:15;102403.28;;;-3.22;100.00
67015;BME280;1033;52.560;13.374;2024-01-11T07:13:45;102412.31;;;-3.26;100.00
67015;BME280;1033;52.560;13.374;2024-01-11T07:16:14;102412.31;;;-3.26;100.00
67015;BME280;1033;52.560;13.374;2024-01-11T07:18:43;102397.81;;;-3.19;100.00
67015;BME280;1033;52.560;13.374;2024-01-11T07:21:12;102401.19;;;-3.15;100.00
67015;BME280;1033;52.560;13.374;2024-01-11T07:23:41;102392.63;;;-3.03;100.00
67015;BME280;1033;52.560;13.374;2024-01-11T07:26:10;102393.47;;;-3.02;100.00
67015;BME280;1033;52.560;13.374;2024-01-11T07:28:40;102388.19;;;-3.02;100.00
67015;BME280;1033;52.560;13.374;2024-01-11T07:31:10;102389.28;;;-3.07;100.00
67015;BME280;1033;52.560;13.374;2024-01-11T07:33:39;102405.94;;;-3.04;100.00
67015;BME280;1033;52.560;13.374;2024-01-11T07:36:08;102405.47;;;-2.95;100.00
67015;BME280;1033;52.560;13.374;2024-01-11T07:38:37;102397.06;;;-2.86;100.00
67015;BME280;1033;52.560;13.374;2024-01-11T07:41:06;102398.59;;;-2.82;100.00
67015;BME280;1033;52.560;13.374;2024-01-11T07:43:35;102397.81;;;-2.84;100.00
67015;BME280;1033;52.560;13.374;2024-01-11T07:46:21;102398.13;;;-2.73;100.00
67015;BME280;1033;52.560;13.374;2024-01-11T07:49:05;102412.59;;;-2.63;100.00
67015;BME280;1033;52.560;13.374;2024-01-11T07:51:34;102396.56;;;-2.44;100.00
67015;BME280;1033;52.560;13.374;2024-01-11T07:54:03;102385.63;;;-2.54;100.00
67015;BME280;1033;52.560;13.374;2024-01-11T07:56:32;102386.03;;;-2.46;100.00
67015;BME280;1033;52.560;13.374;2024-01-11T07:59:02;102380.84;;;-2.47;100.00
67015;BME280;1033;52.560;13.374;2024-01-11T08:01:33;102374.84;;;-2.51;100.00
67015;BME280;1033;52.560;13.374;2024-01-11T08:04:03;102380.13;;;-2.51;100.00
67015;BME280;1033;52.560;13.374;2024-01-11T08:06:32;102389.88;;;-2.51;100.00
67015;BME280;1033;52.560;13.374;2024-01-11T08:09:01;102381.22;;;-2.38;100.00
67015;BME280;1033;52.560;13.374;2024-01-11T08:11:32;102385.91;;;-2.27;100.00
67015;BME280;1033;52.560;13.374;2024-01-11T08:14:04;102384.78;;;-2.39;100.00
67015;BME280;1033;52.560;13.374;2024-01-11T08:16:42;102384.78;;;-2.39;100.00
67015;BME280;1033;52.560;13.374;2024-01-11T08:19:11;102371.25;;;-2.50;100.00
67015;BME280;1033;52.560;13.374;2024-01-11T08:21:41;102375.19;;;-2.41;100.00
67015;BME280;1033;52.560;13.374;2024-01-11T08:24:10;102392.22;;;-2.45;100.00
67015;BME280;1033;52.560;13.374;2024-01-11T08:26:39;102387.75;;;-2.45;100.00
67015;BME280;1033;52.560;13.374;2024-01-11T08:29:09;102391.81;;;-2.38;100.00
67015;BME280;1033;52.560;13.374;2024-01-11T08:31:37;102388.63;;;-2.44;100.00
67015;BME280;1033;52.560;13.374;2024-01-11T08:34:08;102370.13;;;-2.46;100.00
67015;BME280;1033;52.560;13.374;2024-01-11T08:36:38;102364.09;;;-2.32;100.00
67015;BME280;1033;52.560;13.374;2024-01-11T08:39:07;102361.53;;;-2.34;100.00
67015;BME280;1033;52.560;13.374;2024-01-11T08:41:38;102368.31;;;-2.28;100.00
67015;BME280;1033;52.560;13.374;2024-01-11T08:44:07;102375.41;;;-2.29;100.00
67015;BME280;1033;52.560;13.374;2024-01-11T08:46:37;102367.84;;;-2.36;100.00
67015;BME280;1033;52.560;13.374;2024-01-11T08:49:07;102358.59;;;-2.45;100.00
67015;BME280;1033;52.560;13.374;2024-01-11T08:51:36;102372.91;;;-2.32;100.00
67015;BME280;1033;52.560;13.374;2024-01-11T08:54:05;102381.13;;;-2.21;100.00
67015;BME280;1033;52.560;13.374;2024-01-11T08:56:36;102371.72;;;-2.10;100.00
67015;BME280;1033;52.560;13.374;2024-01-11T08:59:06;102369.56;;;-1.88;100.00
67015;BME280;1033;52.560;13.374;2024-01-11T09:01:37;102352.47;;;-1.83;100.00
67015;BME280;1033;52.560;13.374;2024-01-11T09:04:07;102333.88;;;-1.83;100.00
67015;BME280;1033;52.560;13.374;2024-01-11T09:06:36;102338.63;;;-1.58;100.00
67015;BME280;1033;52.560;13.374;2024-01-11T09:09:05;102339.56;;;-1.59;100.00
67015;BME280;1033;52.560;13.374;2024-01-11T09:11:37;102332.25;;;-1.69;100.00
67015;BME280;1033;52.560;13.374;2024-01-11T09:14:06;102328.97;;;-1.59;100.00
67015;BME280;1033;52.560;13.374;2024-01-11T09:16:38;102318.00;;;-1.53;100.00
67015;BME280;1033;52.560;13.374;2024-01-11T09:19:09;102329.81;;;-1.58;100.00
67015;BME280;1033;52.560;13.374;2024-01-11T09:21:38;102325.22;;;-1.70;100.00
67015;BME280;1033;52.560;13.374;2024-01-11T09:24:07;102329.75;;;-1.57;100.00
67015;BME280;1033;52.560;13.374;2024-01-11T09:26:36;102341.84;;;-1.67;100.00
67015;BME280;1033;52.560;13.374;2024-01-11T09:29:05;102340.03;;;-1.66;100.00
67015;BME280;1033;52.560;13.374;2024-01-11T09:31:33;102353.03;;;-1.62;100.00
67015;BME280;1033;52.560;13.374;2024-01-11T09:34:02;102347.47;;;-1.73;100.00
67015;BME280;1033;52.560;13.374;2024-01-11T09:36:33;102340.31;;;-1.71;100.00
67015;BME280;1033;52.560;13.374;2024-01-11T09:39:04;102338.25;;;-1.66;100.00
67015;BME280;1033;52.560;13.374;2024-01-11T09:41:35;102344.81;;;-1.57;100.00
67015;BME280;1033;52.560;13.374;2024-01-11T09:44:05;102345.59;;;-1.55;100.00
67015;BME280;1033;52.560;13.374;2024-01-11T09:46:34;102345.00;;;-1.60;100.00
67015;BME280;1033;52.560;13.374;2024-01-11T09:49:03;102363.75;;;-1.79;100.00
67015;BME280;1033;52.560;13.374;2024-01-11T09:51:35;102348.41;;;-1.74;100.00
67015;BME280;1033;52.560;13.374;2024-01-11T09:54:09;102355.72;;;-1.78;100.00
67015;BME280;1033;52.560;13.374;2024-01-11T09:56:39;102358.28;;;-1.76;100.00
67015;BME280;1033;52.560;13.374;2024-01-11T09:59:09;102356.63;;;-1.63;100.00
67015;BME280;1033;52.560;13.374;2024-01-11T10:01:41;102350.19;;;-1.59;100.00
67015;BME280;1033;52.560;13.374;2024-01-11T10:04:10;102352.22;;;-1.48;100.00
67015;BME280;1033;52.560;13.374;2024-01-11T10:06:42;102353.38;;;-1.22;100.00
67015;BME280;1033;52.560;13.374;2024-01-11T10:09:12;102350.78;;;-1.24;100.00
67015;BME280;1033;52.560;13.374;2024-01-11T10:11:41;102349.56;;;-1.18;100.00
67015;BME280;1033;52.560;13.374;2024-01-11T10:14:12;102346.28;;;-1.08;100.00
67015;BME280;1033;52.560;13.374;2024-01-11T10:16:42;102349.53;;;-1.03;100.00
67015;BME280;1033;52.560;13.374;2024-01-11T10:19:11;102345.25;;;-0.91;100.00
67015;BME280;1033;52.560;13.374;2024-01-11T10:21:45;102340.72;;;-0.89;100.00
67015;BME280;1033;52.560;13.374;2024-01-11T10:24:18;102330.56;;;-0.82;100.00
67015;BME280;1033;52.560;13.374;2024-01-11T10:26:48;102318.66;;;-1.05;100.00
67015;BME280;1033;52.560;13.374;2024-01-11T10:29:17;102312.50;;;-1.06;100.00
67015;BME280;1033;52.560;13.374;2024-01-11T10:31:46;102319.44;;;-0.89;100.00
67015;BME280;1033;52.560;13.374;2024-01-11T10:34:15;102316.03;;;-0.91;100.00
67015;BME280;1033;52.560;13.374;2024-01-11T10:36:46;102319.16;;;-0.84;100.00
67015;BME280;1033;52.560;13.374;2024-01-11T10:39:17;102318.97;;;-0.67;100.00
67015;BME280;1033;52.560;13.374;2024-01-11T10:41:51;102331.22;;;-0.65;100.00
67015;BME280;1033;52.560;13.374;2024-01-11T10:44:22;102330.38;;;-0.79;100.00
67015;BME280;1033;52.560;13.374;2024-01-11T10:46:51;102339.19;;;-0.93;100.00
67015;BME280;1033;52.560;13.374;2024-01-11T10:49:26;102338.81;;;-0.87;100.00
67015;BME280;1033;52.560;13.374;2024-01-11T10:51:59;102341.88;;;-0.79;100.00
67015;BME280;1033;52.560;13.374;2024-01-11T10:54:29;102328.56;;;-0.93;100.00
67015;BME280;1033;52.560;13.374;2024-01-11T10:56:59;102323.53;;;-0.98;100.00
67015;BME280;1033;52.560;13.374;2024-01-11T10:59:30;102318.66;;;-1.05;100.00
67015;BME280;1033;52.560;13.374;2024-01-11T11:02:05;102315.06;;;-1.04;100.00
67015;BME280;1033;52.560;13.374;2024-01-11T11:04:39;102310.53;;;-0.88;100.00
67015;BME280;1033;52.560;13.374;2024-01-11T11:07:10;102313.75;;;-0.97;100.00
67015;BME280;1033;52.560;13.374;2024-01-11T11:09:40;102300.41;;;-1.25;100.00
67015;BME280;1033;52.560;13.374;2024-01-11T11:12:11;102314.88;;;-1.01;100.00
67015;BME280;1033;52.560;13.374;2024-01-11T11:14:45;102320.16;;;-1.15;100.00
67015;BME280;1033;52.560;13.374;2024-01-11T11:17:15;102329.66;;;-1.11;100.00
67015;BME280;1033;52.560;13.374;2024-01-11T11:19:44;102322.25;;;-1.06;100.00
67015;BME280;1033;52.560;13.374;2024-01-11T11:22:15;102315.16;;;-0.92;100.00
67015;BME280;1033;52.560;13.374;2024-01-11T11:24:47;102320.97;;;-0.85;100.00
67015;BME280;1033;52.560;13.374;2024-01-11T11:27:16;102326.06;;;-0.96;100.00
67015;BME280;1033;52.560;13.374;2024-01-11T11:29:47;102335.97;;;-0.98;100.00
67015;BME280;1033;52.560;13.374;2024-01-11T11:32:17;102344.47;;;-1.21;100.00
67015;BME280;1033;52.560;13.374;2024-01-11T11:34:47;102352.78;;;-1.27;100.00
67015;BME280;1033;52.560;13.374;2024-01-11T11:37:24;102350.75;;;-1.08;100.00
67015;BME280;1033;52.560;13.374;2024-01-11T11:39:53;102358.13;;;-1.13;100.00
67015;BME280;1033;52.560;13.374;2024-01-11T11:42:22;102343.59;;;-1.22;100.00
67015;BME280;1033;52.560;13.374;2024-01-11T11:44:53;102339.31;;;-1.24;100.00
67015;BME280;1033;52.560;13.374;2024-01-11T11:47:23;102330.13;;;-1.19;100.00
67015;BME280;1033;52.560;13.374;2024-01-11T11:50:13;102330.66;;;-0.98;100.00
67015;BME280;1033;52.560;13.374;2024-01-11T11:52:45;102333.44;;;-1.15;100.00
67015;BME280;1033;52.560;13.374;2024-01-11T11:55:14;102339.75;;;-1.02;100.00
67015;BME280;1033;52.560;13.374;2024-01-11T11:57:44;102344.31;;;-0.90;100.00
67015;BME280;1033;52.560;13.374;2024-01-11T12:00:29;102334.81;;;-0.94;100.00
67015;BME280;1033;52.560;13.374;2024-01-11T12:03:02;102313.00;;;-0.71;100.00
67015;BME280;1033;52.560;13.374;2024-01-11T12:05:32;102308.53;;;-0.70;100.00
67015;BME280;1033;52.560;13.374;2024-01-11T12:08:03;102309.09;;;-0.65;100.00
67015;BME280;1033;52.560;13.374;2024-01-11T12:10:32;102311.28;;;-0.72;100.00
67015;BME280;1033;52.560;13.374;2024-01-11T12:13:02;102318.16;;;-0.68;100.00
67015;BME280;1033;52.560;13.374;2024-01-11T12:15:31;102312.41;;;-0.62;100.00
67015;BME280;1033;52.560;13.374;2024-01-11T12:18:00;102319.75;;;-0.79;100.00
67015;BME280;1033;52.560;13.374;2024-01-11T12:20:30;102323.25;;;-0.65;100.00
67015;BME280;1033;52.560;13.374;2024-01-11T12:22:59;102327.34;;;-0.73;100.00
67015;BME280;1033;52.560;13.374;2024-01-11T12:25:31;102331.81;;;-0.60;100.00
67015;BME280;1033;52.560;13.374;2024-01-11T12:28:00;102321.34;;;-0.63;100.00
67015;BME280;1033;52.560;13.374;2024-01-11T12:30:29;102318.97;;;-0.67;100.00
67015;BME280;1033;52.560;13.374;2024-01-11T12:32:58;102310.53;;;-0.60;100.00
67015;BME280;1033;52.560;13.374;2024-01-11T12:35:29;102303.28;;;-0.44;100.00
67015;BME280;1033;52.560;13.374;2024-01-11T12:38:00;102296.00;;;-0.54;100.00
67015;BME280;1033;52.560;13.374;2024-01-11T12:40:32;102289.44;;;-0.63;100.00
67015;BME280;1033;52.560;13.374;2024-01-11T12:43:02;102285.84;;;-0.62;100.00
67015;BME280;1033;52.560;13.374;2024-01-11T12:45:32;102291.13;;;-0.48;100.00
67015;BME280;1033;52.560;13.374;2024-01-11T12:51:58;102299.72;;;-0.16;100.00
67015;BME280;1033;52.560;13.374;2024-01-11T12:54:26;102300.59;;;-0.15;100.00
67015;BME280;1033;52.560;13.374;2024-01-11T12:56:56;102292.31;;;-0.11;100.00
67015;BME280;1033;52.560;13.374;2024-01-11T12:59:26;102275.81;;;-0.03;100.00
67015;BME280;1033;52.560;13.374;2024-01-11T13:01:55;102273.88;;;0.13;100.00
67015;BME280;1033;52.560;13.374;2024-01-11T13:04:24;102269.03;;;0.32;100.00
67015;BME280;1033;52.560;13.374;2024-01-11T13:13:00;102259.72;;;0.25;100.00